Time;durP1;ratioP1;P1;durP2;ratioP2;P2;SDS_P1;SDS_P2;PMS_P1;PMS_P2;Temp;Humidity;BMP_temperature;BMP_pressure;BME280_temperature;BME280_humidity;BME280_pressure;Samples;Min_cycle;Max_cycle;Signal;HPM_P1;HPM_P2
2021/07/25 00:00:56;;;;;;;20.85;15.77;;;;;;;;;;5021089;28;20103;-42
2021/07/25 00:03:22;;;;;;;22.23;16.42;;;;;;;;;;5020936;28;20060;-41
2021/07/25 00:05:48;;;;;;;21.15;15.30;;;;;;;;;;5020824;28;20025;-41
2021/07/25 00:08:14;;;;;;;20.23;16.10;;;;;;;;;;5020311;28;20106;-42
2021/07/25 00:10:41;;;;;;;21.80;15.88;;;;;;;;;;5021017;28;20071;-42
2021/07/25 00:13:08;;;;;;;19.73;15.23;;;;;;;;;;5020662;28;20039;-42
2021/07/25 00:15:35;;;;;;;18.90;15.88;;;;;;;;;;5020723;28;20045;-43
2021/07/25 00:18:01;;;;;;;23.65;15.57;;;;;;;;;;5020348;28;20148;-41
2021/07/25 00:20:27;;;;;;;26.73;17.25;;;;;;;;;;5019888;28;20033;-41
2021/07/25 00:22:53;;;;;;;19.52;14.48;;;;;;;;;;5020559;28;20709;-41
2021/07/25 00:25:19;;;;;;;19.75;15.18;;;;;;;;;;5019909;28;20032;-41
2021/07/25 00:27:49;;;;;;;22.45;16.27;;;;;;;;;;5020251;28;20029;-41
2021/07/25 00:30:15;;;;;;;23.02;16.90;;;;;;;;;;5020119;28;20056;-42
2021/07/25 00:32:41;;;;;;;18.10;15.55;;;;;;;;;;5019198;28;20528;-41
2021/07/25 00:35:09;;;;;;;21.27;15.55;;;;;;;;;;5020293;28;20112;-42
2021/07/25 00:37:35;;;;;;;20.52;15.73;;;;;;;;;;5020193;28;20118;-43
2021/07/25 00:40:03;;;;;;;18.25;15.10;;;;;;;;;;5019867;28;20767;-41
2021/07/25 00:42:41;;;;;;;20.95;15.65;;;;;;;;;;5020109;28;20040;-41
2021/07/25 00:45:07;;;;;;;22.00;15.48;;;;;;;;;;5020052;28;20102;-41
2021/07/25 00:47:38;;;;;;;18.73;15.70;;;;;;;;;;5019709;28;20033;-41
2021/07/25 00:50:06;;;;;;;18.98;16.02;;;;;;;;;;5019825;28;20032;-41
2021/07/25 00:52:33;;;;;;;19.65;15.02;;;;;;;;;;5019628;28;20144;-41
2021/07/25 00:55:00;;;;;;;20.77;15.38;;;;;;;;;;5019470;28;20179;-42
2021/07/25 00:57:26;;;;;;;23.00;15.20;;;;;;;;;;5020245;28;20017;-43
2021/07/25 00:59:52;;;;;;;25.33;15.90;;;;;;;;;;5019586;28;20029;-41
2021/07/25 01:02:18;;;;;;;20.75;16.45;;;;;;;;;;5019303;28;20021;-44
2021/07/25 01:04:47;;;;;;;21.15;17.17;;;;;;;;;;5019811;28;20037;-44
2021/07/25 01:07:32;;;;;;;24.88;16.48;;;;;;;;;;5019865;28;20032;-47
2021/07/25 01:10:31;;;;;;;18.85;15.43;;;;;;;;;;5019610;28;20036;-47
2021/07/25 01:12:58;;;;;;;23.67;16.00;;;;;;;;;;5000818;28;20524;-43
2021/07/25 01:15:26;;;;;;;24.10;16.23;;;;;;;;;;5001172;28;21220;-43
2021/07/25 01:17:54;;;;;;;24.70;16.05;;;;;;;;;;5000962;28;20048;-43
2021/07/25 01:20:20;;;;;;;20.92;15.82;;;;;;;;;;5000925;28;20036;-43
2021/07/25 01:22:49;;;;;;;22.48;16.52;;;;;;;;;;5000905;28;20552;-43
2021/07/25 01:25:16;;;;;;;19.67;15.65;;;;;;;;;;5045166;28;20041;-42
2021/07/25 01:27:44;;;;;;;21.40;16.48;;;;;;;;;;5052564;28;20025;-43
2021/07/25 01:30:12;;;;;;;19.33;15.13;;;;;;;;;;5052381;28;20036;-43
2021/07/25 01:32:39;;;;;;;22.23;15.90;;;;;;;;;;5052165;28;20458;-43
2021/07/25 01:35:05;;;;;;;23.30;16.52;;;;;;;;;;5052088;28;20504;-43
2021/07/25 01:37:32;;;;;;;19.63;16.00;;;;;;;;;;5052136;28;20100;-43
2021/07/25 01:39:58;;;;;;;22.40;15.88;;;;;;;;;;5052065;28;20032;-43
2021/07/25 01:42:31;;;;;;;23.13;17.60;;;;;;;;;;5052203;28;20389;-43
2021/07/25 01:44:57;;;;;;;20.27;15.32;;;;;;;;;;5051723;28;20447;-43
2021/07/25 01:47:23;;;;;;;18.92;15.05;;;;;;;;;;5052624;28;20508;-42
2021/07/25 01:49:49;;;;;;;19.13;14.65;;;;;;;;;;5073993;28;20031;-43
2021/07/25 01:52:15;;;;;;;22.33;14.75;;;;;;;;;;5073880;28;20389;-43
2021/07/25 01:54:44;;;;;;;21.27;15.05;;;;;;;;;;5073919;28;20016;-43
2021/07/25 01:57:10;;;;;;;20.40;13.48;;;;;;;;;;5073753;28;20017;-43
2021/07/25 01:59:38;;;;;;;23.60;15.40;;;;;;;;;;5073791;28;20380;-42
2021/07/25 02:02:05;;;;;;;20.95;14.00;;;;;;;;;;5074044;28;20111;-42
2021/07/25 02:04:31;;;;;;;19.00;13.20;;;;;;;;;;5073767;28;20044;-42
2021/07/25 02:06:57;;;;;;;19.80;13.73;;;;;;;;;;5073648;28;20021;-43
2021/07/25 02:09:23;;;;;;;22.73;13.85;;;;;;;;;;5073670;28;20067;-44
2021/07/25 02:11:51;;;;;;;16.58;12.13;;;;;;;;;;5073598;28;20025;-44
2021/07/25 02:14:17;;;;;;;15.88;12.10;;;;;;;;;;5073596;28;20020;-42
2021/07/25 02:16:43;;;;;;;15.90;12.90;;;;;;;;;;5073557;28;20505;-44
2021/07/25 02:19:09;;;;;;;19.20;12.55;;;;;;;;;;5073641;28;20439;-44
2021/07/25 02:21:35;;;;;;;26.52;12.95;;;;;;;;;;5073552;28;20080;-44
2021/07/25 02:24:01;;;;;;;16.45;11.70;;;;;;;;;;5073503;28;20056;-44
2021/07/25 02:26:27;;;;;;;25.13;12.52;;;;;;;;;;5073679;28;20089;-44
2021/07/25 02:28:54;;;;;;;17.77;11.80;;;;;;;;;;5073434;28;20052;-44
2021/07/25 02:31:20;;;;;;;20.13;11.40;;;;;;;;;;5073598;28;20021;-44
2021/07/25 02:33:46;;;;;;;16.35;11.07;;;;;;;;;;5073395;28;20021;-44
2021/07/25 02:36:12;;;;;;;14.60;11.30;;;;;;;;;;5073341;28;20020;-43
2021/07/25 02:38:38;;;;;;;16.80;11.25;;;;;;;;;;5073337;28;20130;-43
2021/07/25 02:41:04;;;;;;;17.35;10.50;;;;;;;;;;5073421;28;20025;-44
2021/07/25 02:43:32;;;;;;;15.27;10.98;;;;;;;;;;5073457;28;20115;-44
2021/07/25 02:45:58;;;;;;;16.63;11.48;;;;;;;;;;5073086;28;20499;-43
2021/07/25 02:48:24;;;;;;;18.50;10.90;;;;;;;;;;5073554;28;20052;-43
2021/07/25 02:50:50;;;;;;;17.33;10.82;;;;;;;;;;5073462;28;20017;-44
2021/07/25 02:53:16;;;;;;;14.20;11.13;;;;;;;;;;5073476;28;20115;-44
2021/07/25 02:55:43;;;;;;;14.95;9.93;;;;;;;;;;5074634;28;20020;-43
2021/07/25 02:58:09;;;;;;;15.18;10.10;;;;;;;;;;5077378;28;20053;-44
2021/07/25 03:00:35;;;;;;;13.48;9.88;;;;;;;;;;5077211;28;20103;-43
2021/07/25 03:03:01;;;;;;;16.10;9.80;;;;;;;;;;5077182;28;20392;-44
2021/07/25 03:05:27;;;;;;;13.80;10.02;;;;;;;;;;5077273;28;20029;-44
2021/07/25 03:07:53;;;;;;;15.75;10.02;;;;;;;;;;5077236;28;20021;-44
2021/07/25 03:10:19;;;;;;;17.45;9.40;;;;;;;;;;5077156;28;20032;-45
2021/07/25 03:12:45;;;;;;;13.32;9.35;;;;;;;;;;5077191;28;20032;-44
2021/07/25 03:15:12;;;;;;;17.55;9.77;;;;;;;;;;5076649;28;20048;-45
2021/07/25 03:17:38;;;;;;;15.85;10.55;;;;;;;;;;5077087;28;20029;-44
2021/07/25 03:20:04;;;;;;;12.68;9.48;;;;;;;;;;5077261;28;20154;-43
2021/07/25 03:22:30;;;;;;;14.07;9.40;;;;;;;;;;5076753;28;20024;-43
2021/07/25 03:24:58;;;;;;;15.57;9.82;;;;;;;;;;5077374;28;20044;-44
2021/07/25 03:27:24;;;;;;;13.50;10.75;;;;;;;;;;5076992;28;20021;-44
2021/07/25 03:29:50;;;;;;;15.13;10.68;;;;;;;;;;5076717;28;20440;-43
2021/07/25 03:32:18;;;;;;;13.50;9.88;;;;;;;;;;5076885;28;20016;-44
2021/07/25 03:34:45;;;;;;;15.80;10.05;;;;;;;;;;5076796;28;20021;-44
2021/07/25 03:37:11;;;;;;;16.67;10.68;;;;;;;;;;5076514;28;20028;-43
2021/07/25 03:39:38;;;;;;;14.05;9.90;;;;;;;;;;5076457;28;20028;-44
2021/07/25 03:42:04;;;;;;;14.50;10.02;;;;;;;;;;5076561;28;20024;-44
2021/07/25 03:44:31;;;;;;;18.20;10.90;;;;;;;;;;5076382;28;20066;-44
2021/07/25 03:46:57;;;;;;;12.75;9.75;;;;;;;;;;5076783;28;20511;-44
2021/07/25 03:49:23;;;;;;;15.00;9.35;;;;;;;;;;5075127;28;20031;-43
2021/07/25 03:51:49;;;;;;;15.05;10.27;;;;;;;;;;5076212;28;20494;-42
2021/07/25 03:54:15;;;;;;;16.80;10.32;;;;;;;;;;5076393;28;20020;-43
2021/07/25 03:56:41;;;;;;;17.33;10.95;;;;;;;;;;5076090;28;20020;-43
2021/07/25 03:59:07;;;;;;;14.18;10.07;;;;;;;;;;5076486;28;20024;-43
2021/07/25 04:01:33;;;;;;;14.52;9.35;;;;;;;;;;5076223;28;20029;-43
2021/07/25 04:03:59;;;;;;;17.00;10.20;;;;;;;;;;5076289;28;20389;-43
2021/07/25 04:06:26;;;;;;;15.68;9.73;;;;;;;;;;5074158;28;20052;-43
2021/07/25 04:08:52;;;;;;;14.00;9.38;;;;;;;;;;5075484;28;20096;-43
2021/07/25 04:11:21;;;;;;;12.35;9.40;;;;;;;;;;5075733;28;20035;-43
2021/07/25 04:13:47;;;;;;;15.82;9.80;;;;;;;;;;5075986;28;20023;-43
2021/07/25 04:16:13;;;;;;;12.70;9.60;;;;;;;;;;5075651;28;20110;-43
2021/07/25 04:18:39;;;;;;;15.77;9.20;;;;;;;;;;5075859;28;20060;-43
2021/07/25 04:21:05;;;;;;;11.98;9.30;;;;;;;;;;5074697;28;20044;-43
2021/07/25 04:23:31;;;;;;;12.35;9.45;;;;;;;;;;5075647;28;20062;-43
2021/07/25 04:25:57;;;;;;;12.60;9.45;;;;;;;;;;5075765;28;20032;-43
2021/07/25 04:28:24;;;;;;;13.57;9.80;;;;;;;;;;5075598;28;20067;-43
2021/07/25 04:30:50;;;;;;;11.38;8.77;;;;;;;;;;5075638;28;20104;-43
2021/07/25 04:33:17;;;;;;;16.90;10.20;;;;;;;;;;5075736;28;20104;-43
2021/07/25 04:35:43;;;;;;;12.30;9.93;;;;;;;;;;5075592;28;20057;-43
2021/07/25 04:38:09;;;;;;;15.27;9.82;;;;;;;;;;5074334;28;20044;-43
2021/07/25 04:40:36;;;;;;;14.63;9.45;;;;;;;;;;5075595;28;20065;-43
2021/07/25 04:43:03;;;;;;;14.05;9.57;;;;;;;;;;5075480;28;20020;-43
2021/07/25 04:45:33;;;;;;;14.32;9.77;;;;;;;;;;5075310;28;20166;-43
2021/07/25 04:48:02;;;;;;;13.88;8.80;;;;;;;;;;5075390;28;20028;-43
2021/07/25 04:50:32;;;;;;;14.95;9.95;;;;;;;;;;5075263;28;20051;-43
2021/07/25 04:53:00;;;;;;;15.30;9.88;;;;;;;;;;5075227;28;20023;-43
2021/07/25 04:55:31;;;;;;;16.13;9.98;;;;;;;;;;5075016;28;20102;-43
2021/07/25 04:58:03;;;;;;;12.82;9.23;;;;;;;;;;5074109;28;20031;-43
2021/07/25 05:00:31;;;;;;;14.02;9.57;;;;;;;;;;5075195;28;20026;-43
2021/07/25 05:03:01;;;;;;;12.85;10.00;;;;;;;;;;5074910;28;20028;-43
2021/07/25 05:05:29;;;;;;;13.75;9.68;;;;;;;;;;5075098;28;20427;-43
2021/07/25 05:07:59;;;;;;;10.35;8.73;;;;;;;;;;5074670;28;20374;-43
2021/07/25 05:10:25;;;;;;;11.48;8.10;;;;;;;;;;5075079;28;20078;-43
2021/07/25 05:12:57;;;;;;;13.63;9.43;;;;;;;;;;5074864;28;20031;-43
2021/07/25 05:15:28;;;;;;;12.88;8.75;;;;;;;;;;5074488;28;20040;-43
2021/07/25 05:17:54;;;;;;;14.15;8.65;;;;;;;;;;5074251;28;20047;-43
2021/07/25 05:20:26;;;;;;;11.85;9.25;;;;;;;;;;5074625;28;20078;-43
2021/07/25 05:22:54;;;;;;;11.27;8.10;;;;;;;;;;5074505;28;20033;-43
2021/07/25 05:25:22;;;;;;;13.68;8.75;;;;;;;;;;5074841;28;20368;-44
2021/07/25 05:27:49;;;;;;;14.10;9.02;;;;;;;;;;5074603;28;20017;-44
2021/07/25 05:30:16;;;;;;;14.40;9.02;;;;;;;;;;5074478;28;20396;-43
2021/07/25 05:32:42;;;;;;;16.52;8.70;;;;;;;;;;5074439;28;20150;-44
2021/07/25 05:35:09;;;;;;;11.63;8.35;;;;;;;;;;5074399;28;20542;-44
2021/07/25 05:37:35;;;;;;;13.40;8.63;;;;;;;;;;5074178;28;20074;-44
2021/07/25 05:40:01;;;;;;;16.38;8.88;;;;;;;;;;5074148;28;20033;-45
2021/07/25 05:42:27;;;;;;;13.02;9.18;;;;;;;;;;5074066;28;20023;-44
2021/07/25 05:44:54;;;;;;;14.98;10.00;;;;;;;;;;5073825;28;20109;-45
2021/07/25 05:47:20;;;;;;;16.30;8.90;;;;;;;;;;5073994;28;20392;-45
2021/07/25 05:49:46;;;;;;;14.60;8.63;;;;;;;;;;5074164;28;20028;-44
2021/07/25 05:52:12;;;;;;;12.70;8.77;;;;;;;;;;5073878;28;20354;-44
2021/07/25 05:54:38;;;;;;;13.18;8.35;;;;;;;;;;5074219;28;20112;-44
2021/07/25 05:57:04;;;;;;;12.57;8.27;;;;;;;;;;5073850;28;20025;-44
2021/07/25 05:59:30;;;;;;;13.00;8.55;;;;;;;;;;5074149;28;20020;-44
2021/07/25 06:01:58;;;;;;;12.68;7.93;;;;;;;;;;5073862;28;20025;-44
2021/07/25 06:04:24;;;;;;;10.40;7.55;;;;;;;;;;5073669;28;20042;-45
2021/07/25 06:06:50;;;;;;;11.27;7.88;;;;;;;;;;5073760;28;20027;-45
2021/07/25 06:09:16;;;;;;;11.98;8.40;;;;;;;;;;5073702;28;20475;-45
2021/07/25 06:11:43;;;;;;;14.18;9.50;;;;;;;;;;5073927;28;20070;-45
2021/07/25 06:14:09;;;;;;;13.57;10.18;;;;;;;;;;5073549;28;20123;-44
2021/07/25 06:16:35;;;;;;;18.55;11.60;;;;;;;;;;5072405;28;20482;-44
2021/07/25 06:19:01;;;;;;;9.80;7.90;;;;;;;;;;5073883;28;20031;-45
2021/07/25 06:21:27;;;;;;;12.32;7.50;;;;;;;;;;5073429;28;20103;-45
2021/07/25 06:23:55;;;;;;;12.40;8.43;;;;;;;;;;5073571;28;20491;-45
2021/07/25 06:26:21;;;;;;;12.30;7.97;;;;;;;;;;5073456;28;20441;-45
2021/07/25 06:28:49;;;;;;;11.70;7.97;;;;;;;;;;5073622;28;20025;-45
2021/07/25 06:31:15;;;;;;;14.48;8.10;;;;;;;;;;5072862;28;20477;-45
2021/07/25 06:33:41;;;;;;;12.48;8.40;;;;;;;;;;5073591;28;20074;-44
2021/07/25 06:36:14;;;;;;;15.10;9.75;;;;;;;;;;5073402;28;20093;-45
2021/07/25 06:38:40;;;;;;;14.70;10.27;;;;;;;;;;5073190;28;20017;-46
2021/07/25 06:41:06;;;;;;;14.50;8.52;;;;;;;;;;5073665;28;20027;-45
2021/07/25 06:43:33;;;;;;;11.60;7.80;;;;;;;;;;5073343;28;20024;-45
2021/07/25 06:45:59;;;;;;;10.65;8.15;;;;;;;;;;5073129;28;20028;-45
2021/07/25 06:48:26;;;;;;;16.05;8.35;;;;;;;;;;5073551;28;20028;-45
2021/07/25 06:50:54;;;;;;;11.70;7.90;;;;;;;;;;5073339;28;20469;-44
2021/07/25 06:53:21;;;;;;;11.95;9.10;;;;;;;;;;5073238;28;20571;-45
2021/07/25 06:55:48;;;;;;;14.07;8.02;;;;;;;;;;5073550;28;20392;-46
2021/07/25 06:58:14;;;;;;;13.27;8.00;;;;;;;;;;5073218;28;20377;-45
2021/07/25 07:00:41;;;;;;;10.50;7.47;;;;;;;;;;5073065;28;20021;-45
2021/07/25 07:03:07;;;;;;;13.77;7.75;;;;;;;;;;5073075;28;20036;-44
2021/07/25 07:05:34;;;;;;;11.23;8.60;;;;;;;;;;5073161;28;20078;-45
2021/07/25 07:08:03;;;;;;;11.32;8.43;;;;;;;;;;5072911;28;20017;-45
2021/07/25 07:10:30;;;;;;;11.27;7.88;;;;;;;;;;5072959;28;20028;-46
2021/07/25 07:12:57;;;;;;;13.02;7.97;;;;;;;;;;5073003;28;20021;-45
2021/07/25 07:15:24;;;;;;;13.88;8.60;;;;;;;;;;5072821;28;20116;-45
2021/07/25 07:17:53;;;;;;;15.82;8.23;;;;;;;;;;5073008;28;20028;-45
2021/07/25 07:20:20;;;;;;;14.27;8.65;;;;;;;;;;5072869;28;20020;-45
2021/07/25 07:22:52;;;;;;;10.88;7.85;;;;;;;;;;5073002;28;20036;-49
2021/07/25 07:25:18;;;;;;;12.95;8.20;;;;;;;;;;5072901;28;20056;-46
2021/07/25 07:27:45;;;;;;;13.48;8.25;;;;;;;;;;5072987;28;20041;-48
2021/07/25 07:30:11;;;;;;;12.73;8.63;;;;;;;;;;5073115;28;20024;-46
2021/07/25 07:32:38;;;;;;;12.25;8.55;;;;;;;;;;5072978;28;20099;-45
2021/07/25 07:35:06;;;;;;;12.20;8.23;;;;;;;;;;5072814;28;20028;-44
2021/07/25 07:37:32;;;;;;;14.45;8.52;;;;;;;;;;5072888;28;20039;-43
2021/07/25 07:39:58;;;;;;;11.65;8.73;;;;;;;;;;5072764;28;20020;-46
2021/07/25 07:42:24;;;;;;;13.63;8.40;;;;;;;;;;5075296;28;20025;-46
2021/07/25 07:44:50;;;;;;;13.90;7.78;;;;;;;;;;5076303;28;20064;-45
2021/07/25 07:47:16;;;;;;;10.95;8.52;;;;;;;;;;5076303;28;20560;-46
2021/07/25 07:49:42;;;;;;;11.23;7.72;;;;;;;;;;5076263;28;20103;-46
2021/07/25 07:52:09;;;;;;;10.90;8.27;;;;;;;;;;5076656;28;20844;-46
2021/07/25 07:54:35;;;;;;;12.13;8.30;;;;;;;;;;5076257;28;20115;-46
2021/07/25 07:57:01;;;;;;;13.20;9.98;;;;;;;;;;5072391;28;20021;-44
2021/07/25 07:59:27;;;;;;;21.02;9.13;;;;;;;;;;5055836;28;20384;-46
2021/07/25 08:01:53;;;;;;;12.52;8.45;;;;;;;;;;5055652;28;20049;-45
2021/07/25 08:04:19;;;;;;;14.00;9.13;;;;;;;;;;5055360;28;20484;-46
2021/07/25 08:06:46;;;;;;;12.85;9.15;;;;;;;;;;5055149;28;20064;-44
2021/07/25 08:09:12;;;;;;;14.30;10.65;;;;;;;;;;5055586;28;20025;-45
2021/07/25 08:11:43;;;;;;;13.23;9.30;;;;;;;;;;5055587;28;20013;-44
2021/07/25 08:14:11;;;;;;;11.13;9.07;;;;;;;;;;5055287;28;20045;-45
2021/07/25 08:16:37;;;;;;;13.50;8.73;;;;;;;;;;5055171;28;20048;-49
2021/07/25 08:19:03;;;;;;;12.07;8.90;;;;;;;;;;5055325;28;20035;-44
2021/07/25 08:21:29;;;;;;;11.45;8.13;;;;;;;;;;5055325;28;20435;-45
2021/07/25 08:23:55;;;;;;;12.25;8.10;;;;;;;;;;5055035;28;20029;-45
2021/07/25 08:26:22;;;;;;;12.80;8.48;;;;;;;;;;5055272;28;20021;-44
2021/07/25 08:28:48;;;;;;;14.55;8.65;;;;;;;;;;5054076;28;20029;-45
2021/07/25 08:31:14;;;;;;;11.95;8.52;;;;;;;;;;5055315;28;20461;-44
2021/07/25 08:33:40;;;;;;;12.13;9.05;;;;;;;;;;5055103;28;20476;-45
2021/07/25 08:36:06;;;;;;;11.85;9.00;;;;;;;;;;5054985;28;20064;-47
2021/07/25 08:38:32;;;;;;;16.52;8.48;;;;;;;;;;5045650;28;20021;-41
2021/07/25 08:41:12;;;;;;;13.23;8.52;;;;;;;;;;5020548;28;20029;-43
2021/07/25 08:43:39;;;;;;;14.02;8.65;;;;;;;;;;5019801;28;20029;-43
2021/07/25 08:46:23;;;;;;;12.23;8.82;;;;;;;;;;5020209;28;20091;-43
2021/07/25 08:48:52;;;;;;;11.10;9.65;;;;;;;;;;5019800;28;20036;-45
2021/07/25 08:51:22;;;;;;;17.75;11.32;;;;;;;;;;5020330;28;20017;-44
2021/07/25 08:53:59;;;;;;;11.48;9.48;;;;;;;;;;5019463;28;20053;-42
2021/07/25 08:56:29;;;;;;;18.33;9.85;;;;;;;;;;5019747;28;20033;-43
2021/07/25 08:58:58;;;;;;;11.23;9.18;;;;;;;;;;5019705;28;20036;-43
2021/07/25 09:01:26;;;;;;;10.73;9.60;;;;;;;;;;5020318;28;20024;-44
2021/07/25 09:03:52;;;;;;;13.45;10.23;;;;;;;;;;5019784;28;20648;-44
2021/07/25 09:06:18;;;;;;;17.45;10.20;;;;;;;;;;5019614;28;20104;-42
2021/07/25 09:08:44;;;;;;;14.35;10.13;;;;;;;;;;5019421;28;20713;-43
2021/07/25 09:11:11;;;;;;;15.60;10.32;;;;;;;;;;5019984;28;20040;-45
2021/07/25 09:13:37;;;;;;;15.20;10.18;;;;;;;;;;5018918;28;20037;-43
2021/07/25 09:16:03;;;;;;;12.07;9.88;;;;;;;;;;5018899;28;20344;-43
2021/07/25 09:18:29;;;;;;;14.05;10.13;;;;;;;;;;5019709;28;20107;-41
2021/07/25 09:20:55;;;;;;;16.33;10.82;;;;;;;;;;5019182;28;20033;-42
2021/07/25 09:23:21;;;;;;;13.07;9.95;;;;;;;;;;5019531;28;20021;-43
2021/07/25 09:25:49;;;;;;;15.45;10.57;;;;;;;;;;5019183;28;20553;-42
2021/07/25 09:28:21;;;;;;;12.45;9.70;;;;;;;;;;5019354;28;20033;-43
2021/07/25 09:30:48;;;;;;;12.38;10.30;;;;;;;;;;5019559;28;20504;-44
2021/07/25 09:33:21;;;;;;;16.63;10.45;;;;;;;;;;5018933;28;20036;-44
2021/07/25 09:35:49;;;;;;;11.95;10.07;;;;;;;;;;5019572;28;20469;-42
2021/07/25 09:38:17;;;;;;;14.68;10.48;;;;;;;;;;5018787;28;20048;-42
2021/07/25 09:40:44;;;;;;;16.25;10.27;;;;;;;;;;5019020;28;20028;-42
2021/07/25 09:43:11;;;;;;;11.20;9.55;;;;;;;;;;5018991;28;20407;-43
2021/07/25 09:45:56;;;;;;;11.50;9.07;;;;;;;;;;5019220;28;20036;-44
2021/07/25 09:48:23;;;;;;;16.40;9.45;;;;;;;;;;5018567;28;20049;-44
2021/07/25 09:50:52;;;;;;;13.18;9.98;;;;;;;;;;5018486;28;21103;-42
2021/07/25 09:53:18;;;;;;;11.75;10.00;;;;;;;;;;5018853;28;21093;-42
2021/07/25 09:55:45;;;;;;;11.77;9.43;;;;;;;;;;5018311;28;20032;-42
2021/07/25 09:58:12;;;;;;;14.32;9.55;;;;;;;;;;5018707;28;20033;-42
2021/07/25 10:00:39;;;;;;;12.43;9.73;;;;;;;;;;5018343;28;20144;-43
2021/07/25 10:03:33;;;;;;;14.95;10.40;;;;;;;;;;5018978;28;20509;-42
2021/07/25 10:06:18;;;;;;;15.55;10.00;;;;;;;;;;5018549;28;20506;-42
2021/07/25 10:08:45;;;;;;;15.30;9.57;;;;;;;;;;5018145;28;21105;-43
2021/07/25 10:11:17;;;;;;;15.13;9.82;;;;;;;;;;5018516;28;20021;-42
2021/07/25 10:13:44;;;;;;;12.00;9.85;;;;;;;;;;5018782;28;20078;-43
2021/07/25 10:16:10;;;;;;;13.70;10.00;;;;;;;;;;5018061;28;20104;-42
2021/07/25 10:18:36;;;;;;;15.43;10.20;;;;;;;;;;5018534;28;20083;-42
2021/07/25 10:21:02;;;;;;;12.43;10.23;;;;;;;;;;5018585;28;20026;-42
2021/07/25 10:23:32;;;;;;;15.38;10.18;;;;;;;;;;5017659;28;20025;-43
2021/07/25 10:25:59;;;;;;;16.05;10.25;;;;;;;;;;5018183;28;20029;-43
2021/07/25 10:28:26;;;;;;;15.18;10.65;;;;;;;;;;5018303;28;20022;-42
2021/07/25 10:30:53;;;;;;;18.30;11.52;;;;;;;;;;5018126;28;20044;-44
2021/07/25 10:33:19;;;;;;;16.40;11.13;;;;;;;;;;5018322;28;20017;-42
2021/07/25 10:35:47;;;;;;;13.93;10.70;;;;;;;;;;5017851;28;20067;-43
2021/07/25 10:38:14;;;;;;;13.50;10.80;;;;;;;;;;5017447;28;20043;-42
2021/07/25 10:40:40;;;;;;;13.43;10.68;;;;;;;;;;5018254;28;20029;-42
2021/07/25 10:43:07;;;;;;;13.48;10.80;;;;;;;;;;5017666;28;20036;-43
2021/07/25 10:45:36;;;;;;;15.75;11.52;;;;;;;;;;5017729;28;20072;-43
2021/07/25 10:48:12;;;;;;;14.20;10.45;;;;;;;;;;5017958;28;20029;-43
2021/07/25 10:50:39;;;;;;;14.13;10.70;;;;;;;;;;5018125;28;20116;-42
2021/07/25 10:53:05;;;;;;;12.45;10.27;;;;;;;;;;5018074;28;20816;-43
2021/07/25 10:55:38;;;;;;;11.48;10.32;;;;;;;;;;5017922;28;20083;-42
2021/07/25 10:58:08;;;;;;;16.00;11.05;;;;;;;;;;5017616;28;20021;-42
2021/07/25 11:00:47;;;;;;;14.90;9.95;;;;;;;;;;5017960;28;20366;-42
2021/07/25 11:03:34;;;;;;;11.80;10.60;;;;;;;;;;5017333;28;20032;-42
2021/07/25 11:06:15;;;;;;;13.32;10.85;;;;;;;;;;5018204;28;20056;-43
2021/07/25 11:08:46;;;;;;;14.98;11.32;;;;;;;;;;5017493;28;20312;-42
2021/07/25 11:11:29;;;;;;;19.13;14.70;;;;;;;;;;5017359;28;20119;-43
2021/07/25 11:13:55;;;;;;;21.15;17.50;;;;;;;;;;5017577;28;20017;-43
2021/07/25 11:16:31;;;;;;;17.67;14.20;;;;;;;;;;5018719;28;21022;-42
2021/07/25 11:18:57;;;;;;;14.75;11.02;;;;;;;;;;5022011;28;20033;-44
2021/07/25 11:21:36;;;;;;;12.18;10.52;;;;;;;;;;5021493;28;20076;-43
2021/07/25 11:24:22;;;;;;;13.40;10.30;;;;;;;;;;5024181;28;20052;-42
2021/07/25 11:26:59;;;;;;;16.98;10.48;;;;;;;;;;5021210;28;20190;-42
2021/07/25 11:29:35;;;;;;;16.95;11.23;;;;;;;;;;5021513;28;20327;-42
2021/07/25 11:32:01;;;;;;;16.23;10.48;;;;;;;;;;5021751;28;20031;-42
2021/07/25 11:34:31;;;;;;;15.20;10.13;;;;;;;;;;5021368;28;20478;-43
2021/07/25 11:36:59;;;;;;;11.20;9.30;;;;;;;;;;5021427;28;20335;-43
2021/07/25 11:39:26;;;;;;;12.27;9.95;;;;;;;;;;5021397;28;20095;-43
2021/07/25 11:41:52;;;;;;;11.18;9.77;;;;;;;;;;5019738;28;20034;-41
2021/07/25 11:44:24;;;;;;;13.02;10.10;;;;;;;;;;5021029;28;20041;-42
2021/07/25 11:46:50;;;;;;;17.05;9.77;;;;;;;;;;5021070;28;20388;-41
2021/07/25 11:49:23;;;;;;;12.63;11.15;;;;;;;;;;5020836;28;20040;-43
2021/07/25 11:52:03;;;;;;;10.65;9.35;;;;;;;;;;5021077;28;20018;-41
2021/07/25 11:54:32;;;;;;;15.02;9.77;;;;;;;;;;5020794;28;20025;-44
2021/07/25 11:57:00;;;;;;;12.48;9.95;;;;;;;;;;5020917;28;20025;-45
2021/07/25 11:59:26;;;;;;;11.40;10.20;;;;;;;;;;5021124;28;20225;-44
2021/07/25 12:01:53;;;;;;;12.73;9.95;;;;;;;;;;5020385;28;20083;-45
2021/07/25 12:04:20;;;;;;;13.38;10.05;;;;;;;;;;5021200;28;20048;-47
2021/07/25 12:06:46;;;;;;;12.05;9.30;;;;;;;;;;5021008;28;20278;-44
2021/07/25 12:09:13;;;;;;;13.18;9.48;;;;;;;;;;5020317;28;20033;-44
2021/07/25 12:11:40;;;;;;;12.60;8.93;;;;;;;;;;5020672;28;20029;-46
2021/07/25 12:14:06;;;;;;;10.43;9.20;;;;;;;;;;5019937;28;20036;-42
2021/07/25 12:16:45;;;;;;;11.85;9.43;;;;;;;;;;5020909;28;20064;-45
2021/07/25 12:19:12;;;;;;;12.73;9.27;;;;;;;;;;5020716;28;20175;-44
2021/07/25 12:21:38;;;;;;;11.77;10.13;;;;;;;;;;5020455;28;20786;-44
2021/07/25 12:24:05;;;;;;;13.35;9.52;;;;;;;;;;5020817;28;20043;-45
2021/07/25 12:26:40;;;;;;;17.50;9.82;;;;;;;;;;5019814;28;20198;-44
2021/07/25 12:29:25;;;;;;;11.25;9.93;;;;;;;;;;5019019;28;20769;-45
2021/07/25 12:31:51;;;;;;;11.45;9.95;;;;;;;;;;5020577;28;20033;-44
2021/07/25 12:34:24;;;;;;;11.77;9.80;;;;;;;;;;5020224;28;20030;-42
2021/07/25 12:36:50;;;;;;;13.00;10.75;;;;;;;;;;5020221;28;20029;-44
2021/07/25 12:39:19;;;;;;;21.80;11.20;;;;;;;;;;5020290;28;20029;-43
2021/07/25 12:41:46;;;;;;;12.43;9.95;;;;;;;;;;5019462;28;20040;-45
2021/07/25 12:44:25;;;;;;;11.20;10.00;;;;;;;;;;5019797;28;20133;-45
2021/07/25 12:46:51;;;;;;;11.40;9.95;;;;;;;;;;5019816;28;20031;-43
2021/07/25 12:49:17;;;;;;;10.50;9.50;;;;;;;;;;5019895;28;20064;-44
2021/07/25 12:51:43;;;;;;;12.45;10.35;;;;;;;;;;5020067;28;20029;-43
2021/07/25 12:54:12;;;;;;;16.23;10.82;;;;;;;;;;5019297;28;20021;-44
2021/07/25 12:56:38;;;;;;;11.23;10.02;;;;;;;;;;5020186;28;20105;-42
2021/07/25 12:59:07;;;;;;;11.38;10.10;;;;;;;;;;5019337;28;20466;-44
2021/07/25 13:04:07;;;;;;;10.98;8.85;;;;;;;;;;5019042;28;20065;-43
2021/07/25 13:06:43;;;;;;;12.13;9.55;;;;;;;;;;5019530;28;20021;-44
2021/07/25 13:09:18;;;;;;;11.35;8.85;;;;;;;;;;5019348;28;20847;-44
2021/07/25 13:11:45;;;;;;;13.55;8.57;;;;;;;;;;5019366;28;20409;-43
2021/07/25 13:14:13;;;;;;;9.68;8.60;;;;;;;;;;5019138;28;20029;-44
2021/07/25 13:16:47;;;;;;;12.48;8.85;;;;;;;;;;5019243;28;20576;-43
2021/07/25 13:19:13;;;;;;;13.57;9.20;;;;;;;;;;5019109;28;20131;-44
2021/07/25 13:21:39;;;;;;;10.13;8.95;;;;;;;;;;5019365;28;20190;-43
2021/07/25 13:24:05;;;;;;;9.88;8.60;;;;;;;;;;5018813;28;20082;-44
2021/07/25 13:26:34;;;;;;;9.77;8.77;;;;;;;;;;5019451;28;20351;-44
2021/07/25 13:29:00;;;;;;;10.63;8.13;;;;;;;;;;5019165;28;20024;-43
2021/07/25 13:31:26;;;;;;;9.70;8.70;;;;;;;;;;5019239;28;20807;-44
2021/07/25 13:33:52;;;;;;;10.57;8.50;;;;;;;;;;5019705;28;20031;-43
2021/07/25 13:36:18;;;;;;;10.07;8.63;;;;;;;;;;5019261;28;20022;-43
2021/07/25 13:38:45;;;;;;;13.65;8.90;;;;;;;;;;5018884;28;20064;-44
2021/07/25 13:41:11;;;;;;;11.20;9.00;;;;;;;;;;5018903;28;20029;-44
2021/07/25 13:43:42;;;;;;;10.68;9.55;;;;;;;;;;5019095;28;20032;-42
2021/07/25 13:46:13;;;;;;;9.57;8.57;;;;;;;;;;5018732;28;20037;-42
2021/07/25 13:48:39;;;;;;;;;;;;;;;;;;5019274;28;20139;-44
2021/07/25 13:51:08;;;;;;;10.90;9.35;;;;;;;;;;5019080;28;19915;-43
2021/07/25 13:53:34;;;;;;;10.40;9.25;;;;;;;;;;5018862;28;20024;-42
2021/07/25 13:56:02;;;;;;;10.63;9.40;;;;;;;;;;5018747;28;20032;-43
2021/07/25 13:58:28;;;;;;;11.75;10.55;;;;;;;;;;5018678;28;20025;-43
2021/07/25 14:00:54;;;;;;;11.23;9.88;;;;;;;;;;5018669;28;20136;-43
2021/07/25 14:03:20;;;;;;;13.43;9.52;;;;;;;;;;5019445;28;20025;-43
2021/07/25 14:05:46;;;;;;;14.18;10.93;;;;;;;;;;5017894;28;20764;-44
2021/07/25 14:08:14;;;;;;;13.68;11.55;;;;;;;;;;5017002;28;20035;-43
2021/07/25 14:10:40;;;;;;;14.63;11.07;;;;;;;;;;5018905;28;20520;-43
2021/07/25 14:13:06;;;;;;;11.50;9.88;;;;;;;;;;5018552;28;20029;-44
2021/07/25 14:15:35;;;;;;;12.75;11.32;;;;;;;;;;5017684;28;20897;-43
2021/07/25 14:18:02;;;;;;;13.63;11.60;;;;;;;;;;5018788;28;20033;-44
2021/07/25 14:20:29;;;;;;;13.30;11.70;;;;;;;;;;5018232;28;20032;-44
2021/07/25 14:22:55;;;;;;;13.30;10.45;;;;;;;;;;5018259;28;20103;-44
2021/07/25 14:25:21;;;;;;;16.48;11.88;;;;;;;;;;5017761;28;20071;-43
2021/07/25 14:27:47;;;;;;;15.27;12.90;;;;;;;;;;5017998;28;20032;-44
2021/07/25 14:30:13;;;;;;;15.50;12.40;;;;;;;;;;5018572;28;20825;-44